Time;durP1;ratioP1;P1;durP2;ratioP2;P2;SDS_P1;SDS_P2;PMS_P1;PMS_P2;Temp;Humidity;BMP_temperature;BMP_pressure;BME280_temperature;BME280_humidity;BME280_pressure;Samples;Min_cycle;Max_cycle;Signal;HPM_P1;HPM_P2
2022/02/22 00:00:34;;;;;;;;;;;7.80;99.90;;;5.92;98.46;100451.63;5066896;28;20027;-88
2022/02/22 00:03:01;;;;;;;;;;;7.80;99.90;;;5.95;97.84;100454.03;5069712;28;20025;-87
2022/02/22 00:05:28;;;;;;;;;;;7.80;99.90;;;5.84;97.67;100458.63;5060978;28;19933;-88
2022/02/22 00:07:55;;;;;;;;;;;7.80;99.90;;;5.81;98.17;100464.38;5069770;28;20019;-88
2022/02/22 00:10:23;;;;;;;;;;;7.80;99.90;;;5.82;98.22;100459.81;5069279;28;19932;-88
2022/02/22 00:12:51;;;;;;;;;;;7.80;99.90;;;5.86;98.94;100467.47;5060839;28;19935;-87
2022/02/22 00:15:18;;;;;;;;;;;7.80;99.90;;;5.84;98.44;100469.44;5029691;28;20457;-87
2022/02/22 00:17:45;;;;;;;;;;;7.80;99.90;;;5.82;98.09;100476.84;5060009;28;19932;-87
2022/02/22 00:20:13;;;;;;;;;;;7.80;99.90;;;5.86;99.53;100483.66;5069633;28;20385;-86
2022/02/22 00:22:41;;;;;;;;;;;7.80;99.90;;;5.85;99.21;100481.13;5062334;28;19933;-87
2022/02/22 00:25:11;;;;;;;;;;;7.80;99.90;;;5.87;99.32;100484.50;5051470;28;19932;-87
2022/02/22 00:27:40;;;;;;;;;;;7.80;99.90;;;5.88;99.31;100505.97;5059171;28;19971;-88
2022/02/22 00:30:08;;;;;;;;;;;7.80;99.90;;;5.92;99.78;100509.22;5067277;28;19946;-87
2022/02/22 00:32:39;;;;;;;;;;;7.80;99.90;;;5.95;100.00;100510.75;5063100;28;20007;-87
2022/02/22 00:35:08;;;;;;;;;;;8.00;99.90;;;5.99;99.95;100525.66;5067812;28;19946;-86
2022/02/22 00:37:35;;;;;;;;;;;7.80;99.90;;;5.88;100.00;100527.56;5065658;28;19932;-87
2022/02/22 00:40:02;;;;;;;;;;;7.80;99.90;;;5.84;100.00;100545.06;5069040;28;19925;-88
2022/02/22 00:42:29;;;;;;;;;;;7.80;99.90;;;5.81;100.00;100583.19;5068350;28;19928;-87
2022/02/22 00:44:57;;;;;;;;;;;7.80;99.90;;;5.77;100.00;100580.94;5061271;28;20047;-88
2022/02/22 00:47:24;;;;;;;;;;;7.70;99.90;;;5.71;100.00;100574.28;5068598;28;19994;-88
2022/02/22 00:49:51;;;;;;;;;;;7.70;99.90;;;5.57;99.63;100564.84;5069045;28;20451;-86
2022/02/22 00:52:18;;;;;;;;;;;7.60;99.90;;;5.35;100.00;100573.34;5065900;28;19925;-87
2022/02/22 00:54:45;;;;;;;;;;;7.60;99.90;;;5.22;100.00;100560.22;5056326;28;19932;-87
2022/02/22 00:57:13;;;;;;;;;;;7.50;99.90;;;5.07;100.00;100558.00;5066446;28;19924;-88
2022/02/22 00:59:40;;;;;;;;;;;7.40;99.90;;;4.93;100.00;100565.72;5059655;28;19962;-87
2022/02/22 01:02:08;;;;;;;;;;;7.40;99.90;;;4.90;100.00;100566.88;5068876;28;19999;-87
2022/02/22 01:04:35;;;;;;;;;;;7.30;99.90;;;4.75;100.00;100579.13;5068769;28;20035;-87
2022/02/22 01:07:03;;;;;;;;;;;7.20;99.90;;;4.75;100.00;100582.66;5068688;28;20010;-87
2022/02/22 01:09:31;;;;;;;;;;;7.20;99.90;;;4.70;100.00;100582.22;5068320;28;19928;-88
2022/02/22 01:11:58;;;;;;;;;;;7.10;99.90;;;4.69;100.00;100591.31;5065694;28;20087;-87
2022/02/22 01:14:25;;;;;;;;;;;7.10;99.90;;;4.76;100.00;100580.78;5068568;28;19928;-87
2022/02/22 01:16:52;;;;;;;;;;;7.10;99.90;;;4.77;100.00;100579.81;5068563;28;20360;-87
2022/02/22 01:19:21;;;;;;;;;;;7.10;99.90;;;4.68;100.00;100590.47;5068284;28;19934;-87
2022/02/22 01:21:48;;;;;;;;;;;7.10;99.90;;;4.69;100.00;100585.94;5048982;28;19924;-87
2022/02/22 01:24:15;;;;;;;;;;;7.10;99.90;;;4.67;100.00;100586.06;5062880;28;19928;-88
2022/02/22 01:26:42;;;;;;;;;;;7.00;99.90;;;4.75;100.00;100587.19;5068895;28;19934;-87
2022/02/22 01:29:09;;;;;;;;;;;7.00;99.90;;;4.79;100.00;100585.91;5061211;28;19924;-88
2022/02/22 01:31:36;;;;;;;;;;;7.00;99.90;;;4.84;100.00;100595.25;5068137;28;19974;-88
2022/02/22 01:34:03;;;;;;;;;;;7.00;99.90;;;4.82;100.00;100588.31;5068732;28;19931;-88
2022/02/22 01:36:31;;;;;;;;;;;7.00;99.90;;;4.85;100.00;100598.81;5066271;28;19955;-87
2022/02/22 01:38:58;;;;;;;;;;;7.00;99.90;;;4.78;100.00;100605.75;5068398;28;19931;-87
2022/02/22 01:41:26;;;;;;;;;;;7.00;99.90;;;4.75;100.00;100606.91;5068307;28;19933;-89
2022/02/22 01:43:53;;;;;;;;;;;7.00;99.90;;;4.81;100.00;100609.03;5068461;28;19939;-87
2022/02/22 01:46:20;;;;;;;;;;;7.00;99.90;;;4.80;100.00;100614.59;5068493;28;20039;-88
2022/02/22 01:48:47;;;;;;;;;;;7.00;99.90;;;4.72;100.00;100623.38;5058727;28;20427;-87
2022/02/22 01:51:14;;;;;;;;;;;6.90;99.90;;;4.73;100.00;100627.78;5060905;28;20015;-88
2022/02/22 01:53:43;;;;;;;;;;;7.00;99.90;;;4.67;100.00;100621.13;5068642;28;19932;-88
2022/02/22 01:56:12;;;;;;;;;;;7.00;99.90;;;4.69;100.00;100629.91;5071663;28;20027;-88
2022/02/22 01:58:39;;;;;;;;;;;7.00;99.90;;;4.64;100.00;100626.78;5071995;28;20304;-88
2022/02/22 02:01:07;;;;;;;;;;;7.00;99.90;;;4.64;100.00;100639.41;5072134;28;20018;-88
2022/02/22 02:03:35;;;;;;;;;;;6.90;99.90;;;4.57;100.00;100652.63;5071705;28;19994;-88
2022/02/22 02:06:02;;;;;;;;;;;6.90;99.90;;;4.62;100.00;100639.56;5070299;28;19932;-87
2022/02/22 02:08:29;;;;;;;;;;;6.90;99.90;;;4.59;100.00;100639.84;5071525;28;19931;-88
2022/02/22 02:10:57;;;;;;;;;;;6.90;99.90;;;4.61;100.00;100654.03;5064266;28;20731;-88
2022/02/22 02:13:25;;;;;;;;;;;6.90;99.90;;;4.64;100.00;100642.94;5072167;28;20027;-87
2022/02/22 02:15:52;;;;;;;;;;;6.90;99.90;;;4.62;100.00;100644.94;5071879;28;19933;-87
2022/02/22 02:18:19;;;;;;;;;;;6.80;99.90;;;4.59;100.00;100653.34;5071829;28;20013;-88
2022/02/22 02:20:46;;;;;;;;;;;6.80;99.90;;;4.60;100.00;100652.31;5060509;28;20015;-87
2022/02/22 02:23:14;;;;;;;;;;;6.80;99.90;;;4.64;100.00;100645.66;5064062;28;19964;-88
2022/02/22 02:25:41;;;;;;;;;;;6.80;99.90;;;4.57;100.00;100649.06;5066856;28;19939;-88
2022/02/22 02:28:09;;;;;;;;;;;6.80;99.90;;;4.52;100.00;100649.50;5071343;28;20054;-87
2022/02/22 02:30:36;;;;;;;;;;;6.70;99.90;;;4.53;100.00;100656.56;5071970;28;20013;-87
2022/02/22 02:33:03;;;;;;;;;;;6.70;99.90;;;4.49;100.00;100657.84;5042727;28;19956;-88
2022/02/22 02:35:31;;;;;;;;;;;6.70;99.90;;;4.50;100.00;100660.41;5071957;28;20013;-87
2022/02/22 02:37:58;;;;;;;;;;;6.80;99.90;;;4.56;100.00;100656.31;5071341;28;19928;-87
2022/02/22 02:40:26;;;;;;;;;;;6.80;99.90;;;4.55;100.00;100657.31;5070905;28;20392;-88
2022/02/22 02:42:53;;;;;;;;;;;6.70;99.90;;;4.53;100.00;100661.13;5063137;28;19951;-87
2022/02/22 02:45:22;;;;;;;;;;;6.70;99.90;;;4.54;100.00;100658.28;5065094;28;19935;-87
2022/02/22 02:47:49;;;;;;;;;;;6.70;99.90;;;4.49;100.00;100655.16;5062768;28;19931;-87
2022/02/22 02:50:16;;;;;;;;;;;6.70;99.90;;;4.38;100.00;100652.59;5071724;28;19974;-87
2022/02/22 02:52:43;;;;;;;;;;;6.70;99.90;;;4.42;100.00;100659.44;5049550;28;19982;-87
2022/02/22 02:55:10;;;;;;;;;;;6.70;99.90;;;4.35;100.00;100664.53;5070234;28;19928;-87
2022/02/22 02:57:39;;;;;;;;;;;6.60;99.90;;;4.33;100.00;100665.66;5070635;28;19928;-87
2022/02/22 03:00:08;;;;;;;;;;;6.60;99.90;;;4.41;100.00;100663.13;5068159;28;20490;-86
2022/02/22 03:02:35;;;;;;;;;;;6.60;99.90;;;4.40;100.00;100646.09;5068492;28;19928;-87
2022/02/22 03:05:03;;;;;;;;;;;6.60;99.90;;;4.36;100.00;100651.91;5059110;28;20037;-88
2022/02/22 03:07:30;;;;;;;;;;;6.60;99.90;;;4.41;100.00;100663.94;5070286;28;20023;-87
2022/02/22 03:09:57;;;;;;;;;;;6.60;99.90;;;4.36;100.00;100660.84;5064132;28;20014;-87
2022/02/22 03:12:24;;;;;;;;;;;6.60;99.90;;;4.30;100.00;100673.03;5070398;28;19925;-88
2022/02/22 03:14:53;;;;;;;;;;;6.60;99.90;;;4.31;100.00;100657.72;5071318;28;20393;-88
2022/02/22 03:17:20;;;;;;;;;;;6.60;99.90;;;4.35;100.00;100667.22;5068554;28;19932;-87
2022/02/22 03:19:47;;;;;;;;;;;6.60;99.90;;;4.36;100.00;100678.84;5071010;28;20019;-86
2022/02/22 03:22:14;;;;;;;;;;;6.60;99.90;;;4.31;100.00;100666.66;5070276;28;20043;-87
2022/02/22 03:24:42;;;;;;;;;;;6.60;99.90;;;4.37;100.00;100669.78;5071048;28;19949;-88
2022/02/22 03:27:12;;;;;;;;;;;6.60;99.90;;;4.30;100.00;100667.66;5070313;28;19932;-87
2022/02/22 03:29:39;;;;;;;;;;;6.60;99.90;;;4.33;100.00;100671.06;5061249;28;19967;-87
2022/02/22 03:32:08;;;;;;;;;;;6.60;99.90;;;4.23;100.00;100669.19;5066058;28;19964;-88
2022/02/22 03:34:35;;;;;;;;;;;6.60;99.90;;;4.26;100.00;100665.34;5067081;28;19971;-88
2022/02/22 03:37:03;;;;;;;;;;;6.50;99.90;;;4.31;100.00;100679.28;5070500;28;19928;-87
2022/02/22 03:39:30;;;;;;;;;;;6.50;99.90;;;4.26;100.00;100678.84;5070166;28;19925;-88
2022/02/22 03:41:57;;;;;;;;;;;6.50;99.90;;;4.26;100.00;100676.13;5057840;28;19929;-86
2022/02/22 03:44:24;;;;;;;;;;;6.50;99.90;;;4.26;100.00;100684.22;5070447;28;20022;-88
2022/02/22 03:46:51;;;;;;;;;;;6.50;99.90;;;4.30;100.00;100682.94;5070045;28;20250;-86
2022/02/22 03:49:20;;;;;;;;;;;6.50;99.90;;;4.24;100.00;100689.75;5070331;28;19932;-87
2022/02/22 03:51:47;;;;;;;;;;;6.50;99.90;;;4.15;100.00;100685.22;5059686;28;20301;-87
2022/02/22 03:54:14;;;;;;;;;;;6.40;99.90;;;4.14;100.00;100694.28;5070044;28;19932;-87
2022/02/22 03:56:41;;;;;;;;;;;6.40;99.90;;;4.15;100.00;100696.00;5059620;28;19931;-87
2022/02/22 03:59:08;;;;;;;;;;;6.40;99.90;;;4.13;100.00;100703.31;5068070;28;19935;-88
2022/02/22 04:01:35;;;;;;;;;;;6.40;99.90;;;4.11;100.00;100699.91;5069544;28;19943;-87
2022/02/22 04:04:02;;;;;;;;;;;6.40;99.90;;;4.08;100.00;100708.28;5069948;28;20021;-87
2022/02/22 04:06:30;;;;;;;;;;;6.30;99.90;;;4.01;100.00;100699.06;5054694;28;19943;-87
2022/02/22 04:08:57;;;;;;;;;;;6.30;99.90;;;4.03;100.00;100707.84;5062701;28;19943;-87
2022/02/22 04:11:25;;;;;;;;;;;6.30;99.90;;;4.02;100.00;100711.53;5069332;28;20019;-87
2022/02/22 04:13:52;;;;;;;;;;;6.30;99.90;;;4.09;100.00;100709.97;5060818;28;20015;-87
2022/02/22 04:16:19;;;;;;;;;;;6.30;99.90;;;4.11;100.00;100710.69;5068052;28;19935;-87
2022/02/22 04:18:46;;;;;;;;;;;6.30;99.90;;;4.05;100.00;100722.88;5060242;28;19967;-88
2022/02/22 04:21:13;;;;;;;;;;;6.30;99.90;;;4.08;100.00;100719.91;5070038;28;19990;-87
2022/02/22 04:23:41;;;;;;;;;;;6.30;99.90;;;4.14;100.00;100725.75;5036088;28;20015;-87
2022/02/22 04:26:08;;;;;;;;;;;6.30;99.90;;;4.17;100.00;100730.84;5069537;28;20044;-87
2022/02/22 04:28:35;;;;;;;;;;;6.30;99.90;;;4.16;100.00;100734.53;5067391;28;20011;-88
2022/02/22 04:31:02;;;;;;;;;;;6.30;99.90;;;4.14;100.00;100728.44;5067825;28;19974;-87
2022/02/22 04:33:29;;;;;;;;;;;6.30;99.90;;;4.14;100.00;100740.06;5069153;28;19946;-88
2022/02/22 04:35:56;;;;;;;;;;;6.50;99.90;;;4.13;100.00;100734.81;5069520;28;19951;-87
2022/02/22 04:38:23;;;;;;;;;;;6.30;99.90;;;4.09;100.00;100737.78;5069520;28;20035;-88
2022/02/22 04:40:52;;;;;;;;;;;6.30;99.90;;;4.07;100.00;100737.06;5061079;28;20004;-87
2022/02/22 04:43:19;;;;;;;;;;;6.30;99.90;;;4.06;100.00;100734.53;5051830;28;19963;-87
2022/02/22 04:45:46;;;;;;;;;;;6.30;99.90;;;4.11;100.00;100734.94;5052843;28;19924;-87
2022/02/22 04:48:14;;;;;;;;;;;6.30;99.90;;;4.12;100.00;100739.34;5063306;28;19928;-86
2022/02/22 04:50:41;;;;;;;;;;;6.30;99.90;;;4.14;100.00;100744.59;5069439;28;20023;-88
2022/02/22 04:53:09;;;;;;;;;;;6.30;99.90;;;4.13;100.00;100756.34;5049073;28;19967;-87
2022/02/22 04:55:36;;;;;;;;;;;6.30;99.90;;;4.18;100.00;100749.56;5059887;28;20380;-88
2022/02/22 04:58:04;;;;;;;;;;;6.30;99.90;;;4.14;100.00;100753.53;5062274;28;20018;-87
2022/02/22 05:00:32;;;;;;;;;;;6.30;99.90;;;4.06;100.00;100745.28;5067984;28;20307;-87
2022/02/22 05:02:59;;;;;;;;;;;6.30;99.90;;;4.04;100.00;100758.03;5062013;28;20027;-87
2022/02/22 05:05:26;;;;;;;;;;;6.30;99.90;;;4.10;100.00;100763.72;5069108;28;19956;-87
2022/02/22 05:07:54;;;;;;;;;;;6.30;99.90;;;4.11;100.00;100760.06;5068589;28;19928;-87
2022/02/22 05:10:21;;;;;;;;;;;6.30;99.90;;;4.18;100.00;100746.88;5069285;28;19925;-84
2022/02/22 05:12:48;;;;;;;;;;;6.30;99.90;;;4.09;100.00;100751.25;5067952;28;19928;-86
2022/02/22 05:15:16;;;;;;;;;;;6.30;99.90;;;4.11;100.00;100759.19;5069202;28;19932;-86
2022/02/22 05:17:44;;;;;;;;;;;6.30;99.90;;;4.10;100.00;100755.63;5066710;28;19968;-85
2022/02/22 05:20:12;;;;;;;;;;;6.30;99.90;;;4.10;100.00;100757.47;5068984;28;19925;-85
2022/02/22 05:22:41;;;;;;;;;;;6.30;99.90;;;4.03;100.00;100754.47;5068106;28;19928;-86
2022/02/22 05:25:09;;;;;;;;;;;6.30;99.90;;;4.09;100.00;100761.16;5069144;28;20461;-85
2022/02/22 05:27:36;;;;;;;;;;;6.40;99.90;;;4.06;100.00;100761.44;5068474;28;19924;-85
2022/02/22 05:30:04;;;;;;;;;;;6.30;99.90;;;4.06;100.00;100766.84;5071893;28;19929;-86
2022/02/22 05:32:32;;;;;;;;;;;6.30;99.90;;;4.11;100.00;100772.63;5067381;28;20599;-86
2022/02/22 05:35:00;;;;;;;;;;;6.30;99.90;;;4.14;100.00;100771.53;5073050;28;19936;-85
2022/02/22 05:37:27;;;;;;;;;;;6.20;99.90;;;4.15;100.00;100770.53;5072268;28;19929;-87
2022/02/22 05:39:55;;;;;;;;;;;6.20;99.90;;;4.11;100.00;100772.63;5065698;28;19982;-85
2022/02/22 05:42:22;;;;;;;;;;;6.20;99.90;;;4.06;100.00;100775.75;5070395;28;19968;-85
2022/02/22 05:44:50;;;;;;;;;;;6.20;99.90;;;4.04;100.00;100780.44;5072899;28;19928;-87
2022/02/22 05:47:17;;;;;;;;;;;6.20;99.90;;;4.04;100.00;100777.72;5070130;28;19963;-86
2022/02/22 05:49:46;;;;;;;;;;;6.20;99.90;;;4.04;100.00;100782.28;5062075;28;19935;-86
2022/02/22 05:52:14;;;;;;;;;;;6.20;99.90;;;3.88;100.00;100786.31;5072360;28;19928;-86
2022/02/22 05:54:41;;;;;;;;;;;6.20;99.90;;;3.88;100.00;100788.13;5072626;28;20015;-86
2022/02/22 05:57:08;;;;;;;;;;;6.20;99.90;;;3.88;100.00;100780.94;5069771;28;19959;-86
2022/02/22 05:59:35;;;;;;;;;;;6.10;99.90;;;3.85;100.00;100786.59;5071881;28;19994;-81
2022/02/22 06:02:02;;;;;;;;;;;6.20;99.90;;;3.88;100.00;100783.63;5072396;28;19938;-83
2022/02/22 06:04:29;;;;;;;;;;;6.10;99.90;;;3.83;100.00;100787.72;5064712;28;19935;-84
2022/02/22 06:06:58;;;;;;;;;;;6.10;99.90;;;3.84;100.00;100797.47;5046839;22;20023;-91
2022/02/22 06:09:25;;;;;;;;;;;6.10;99.90;;;3.76;100.00;100787.38;5015772;28;20033;-90
2022/02/22 06:11:52;;;;;;;;;;;6.10;99.90;;;3.79;100.00;100792.50;5033669;28;19932;-90
2022/02/22 06:14:19;;;;;;;;;;;6.00;99.90;;;3.82;100.00;100784.16;5032740;28;19929;-89
2022/02/22 06:16:46;;;;;;;;;;;6.00;99.90;;;3.81;100.00;100795.91;5027791;28;19929;-90
2022/02/22 06:19:13;;;;;;;;;;;6.00;99.90;;;3.76;100.00;100792.75;5011807;28;19933;-89
2022/02/22 06:21:40;;;;;;;;;;;6.00;99.90;;;3.76;100.00;100783.84;5011268;28;20352;-89
2022/02/22 06:24:09;;;;;;;;;;;6.00;99.90;;;3.69;100.00;100792.47;5026579;28;20011;-90
2022/02/22 06:26:36;;;;;;;;;;;5.90;99.90;;;3.67;100.00;100797.09;5031662;28;19957;-90
2022/02/22 06:29:04;;;;;;;;;;;5.90;99.90;;;3.66;100.00;100797.25;5022565;28;19925;-89
2022/02/22 06:31:31;;;;;;;;;;;5.90;99.90;;;3.70;100.00;100804.06;5030083;28;20003;-84
2022/02/22 06:33:58;;;;;;;;;;;5.90;99.90;;;3.69;100.00;100808.59;5023991;28;20468;-89
2022/02/22 06:36:25;;;;;;;;;;;5.90;99.90;;;3.62;100.00;100812.81;5016186;28;19936;-90
2022/02/22 06:38:53;;;;;;;;;;;5.80;99.90;;;3.59;100.00;100822.97;5012322;28;20019;-88
2022/02/22 06:41:21;;;;;;;;;;;5.80;99.90;;;3.57;100.00;100824.94;5015223;28;19987;-85
2022/02/22 06:43:48;;;;;;;;;;;5.80;99.90;;;3.55;100.00;100829.63;5030063;28;19935;-89
2022/02/22 06:46:15;;;;;;;;;;;5.80;99.90;;;3.61;100.00;100831.78;5027280;28;20024;-89
2022/02/22 06:48:42;;;;;;;;;;;5.80;99.90;;;3.63;100.00;100835.19;5029932;28;19925;-90
2022/02/22 06:51:09;;;;;;;;;;;5.80;99.90;;;3.67;100.00;100839.31;5018099;28;20028;-90
2022/02/22 06:53:37;;;;;;;;;;;5.80;99.90;;;3.63;100.00;100836.03;5029623;28;19944;-91
2022/02/22 06:56:04;;;;;;;;;;;5.80;99.90;;;3.67;100.00;100832.09;5031452;28;19975;-89
2022/02/22 06:58:32;;;;;;;;;;;5.90;99.90;;;3.70;100.00;100831.00;5017903;28;20016;-91
2022/02/22 07:01:00;;;;;;;;;;;5.90;99.90;;;3.71;100.00;100833.56;5031258;28;19951;-90
2022/02/22 07:03:27;;;;;;;;;;;5.90;99.90;;;3.73;100.00;100836.09;5022675;28;19925;-89
2022/02/22 07:05:54;;;;;;;;;;;5.90;99.90;;;3.70;100.00;100836.38;5024131;28;19936;-90
2022/02/22 07:08:21;;;;;;;;;;;5.90;99.90;;;3.62;100.00;100839.72;5026169;28;19935;-89
2022/02/22 07:10:49;;;;;;;;;;;5.90;99.90;;;3.60;100.00;100840.81;5046146;28;19959;-88
2022/02/22 07:13:16;;;;;;;;;;;5.80;99.90;;;3.66;100.00;100840.31;5030537;28;19936;-89
2022/02/22 07:15:45;;;;;;;;;;;5.90;99.90;;;3.70;100.00;100841.75;5026805;28;19960;-89
2022/02/22 07:18:13;;;;;;;;;;;5.90;99.90;;;3.62;100.00;100844.25;5011260;28;19926;-89
2022/02/22 07:20:40;;;;;;;;;;;5.90;99.90;;;3.64;100.00;100839.59;5011362;28;19936;-90
2022/02/22 07:23:08;;;;;;;;;;;5.90;99.90;;;3.69;100.00;100842.72;5025423;28;20409;-88
2022/02/22 07:25:35;;;;;;;;;;;5.90;99.90;;;3.67;100.00;100842.00;5037344;28;19951;-89
2022/02/22 07:28:03;;;;;;;;;;;5.90;99.90;;;3.63;100.00;100837.88;5018807;28;19929;-90
2022/02/22 07:30:30;;;;;;;;;;;5.90;99.90;;;3.67;100.00;100833.94;5031262;28;19976;-88
2022/02/22 07:33:00;;;;;;;;;;;5.90;99.90;;;3.63;100.00;100849.47;5035316;28;20021;-88
2022/02/22 07:35:28;;;;;;;;;;;5.90;99.90;;;3.60;100.00;100841.69;5032426;28;20004;-89
2022/02/22 07:37:55;;;;;;;;;;;5.90;99.90;;;3.61;100.00;100850.63;5035906;28;20014;-90
2022/02/22 07:40:24;;;;;;;;;;;5.90;99.90;;;3.68;100.00;100849.09;5027221;28;19925;-91
2022/02/22 07:42:51;;;;;;;;;;;5.90;99.90;;;3.75;100.00;100854.81;5028421;28;19984;-89
2022/02/22 07:45:18;;;;;;;;;;;5.90;99.90;;;3.89;100.00;100847.25;5035148;28;19933;-89
2022/02/22 07:47:45;;;;;;;;;;;6.00;99.90;;;4.11;100.00;100850.75;5029057;28;20363;-89
2022/02/22 07:50:14;;;;;;;;;;;6.00;99.90;;;4.29;100.00;100837.50;5013839;28;20377;-89
2022/02/22 07:52:41;;;;;;;;;;;6.10;99.90;;;4.37;100.00;100840.38;5024565;28;19956;-89
2022/02/22 07:55:08;;;;;;;;;;;6.20;99.90;;;4.47;100.00;100843.09;5031369;28;19979;-89
2022/02/22 07:57:35;;;;;;;;;;;6.30;99.90;;;4.56;100.00;100844.97;5031306;28;20028;-88
2022/02/22 08:00:07;;;;;;;;;;;6.40;99.90;;;4.69;100.00;100842.88;5022347;28;20040;-88
2022/02/22 08:02:34;;;;;;;;;;;6.50;99.90;;;4.76;100.00;100847.72;5020462;28;20022;-89
2022/02/22 08:05:01;;;;;;;;;;;6.50;99.90;;;4.76;100.00;100845.00;5024519;28;19983;-91
2022/02/22 08:07:30;;;;;;;;;;;6.60;99.90;;;4.68;100.00;100846.59;5024571;28;19937;-89
2022/02/22 08:09:57;;;;;;;;;;;6.60;99.90;;;4.70;100.00;100867.97;5014814;28;20411;-89
2022/02/22 08:12:24;;;;;;;;;;;6.70;99.90;;;4.78;100.00;100868.16;5015242;28;20033;-90
2022/02/22 08:14:51;;;;;;;;;;;6.70;99.90;;;4.77;100.00;100862.91;5018918;28;19929;-89
2022/02/22 08:17:18;;;;;;;;;;;6.70;99.90;;;4.84;100.00;100854.13;5015865;28;19926;-89
2022/02/22 08:19:45;;;;;;;;;;;6.80;99.90;;;4.91;100.00;100843.63;5028265;28;20398;-88
2022/02/22 08:22:12;;;;;;;;;;;6.80;99.90;;;4.93;100.00;100847.06;5019346;28;20412;-88
2022/02/22 08:24:41;;;;;;;;;;;6.80;99.90;;;5.01;100.00;100836.41;5014286;28;20021;-88
2022/02/22 08:27:09;;;;;;;;;;;6.90;99.90;;;5.05;100.00;100837.00;5017867;28;19933;-89
2022/02/22 08:29:36;;;;;;;;;;;6.90;99.90;;;5.16;100.00;100831.47;5037637;28;19928;-89
2022/02/22 08:32:03;;;;;;;;;;;7.00;99.90;;;5.18;100.00;100833.97;5030735;28;19929;-90
2022/02/22 08:34:30;;;;;;;;;;;7.00;99.90;;;5.14;100.00;100821.78;5028422;28;19964;-88
2022/02/22 08:36:57;;;;;;;;;;;7.00;99.90;;;5.22;100.00;100819.25;5017122;28;20401;-88
2022/02/22 08:39:25;;;;;;;;;;;7.10;99.90;;;5.25;100.00;100824.34;5028860;28;20310;-90
2022/02/22 08:41:54;;;;;;;;;;;7.40;99.90;;;5.32;100.00;100824.63;5024594;28;19933;-90
2022/02/22 08:44:22;;;;;;;;;;;7.20;99.90;;;5.43;100.00;100827.19;5044790;28;20006;-88
2022/02/22 08:46:51;;;;;;;;;;;7.30;99.90;;;5.52;100.00;100820.06;5032850;28;19959;-90
2022/02/22 08:49:18;;;;;;;;;;;7.30;99.90;;;5.54;100.00;100807.25;5010020;28;19925;-88
2022/02/22 08:51:45;;;;;;;;;;;7.40;99.90;;;5.58;100.00;100814.94;5020963;28;19976;-91
2022/02/22 08:54:16;;;;;;;;;;;7.40;99.90;;;5.60;100.00;100812.09;5027116;28;19929;-90
2022/02/22 08:56:43;;;;;;;;;;;7.50;99.90;;;5.68;100.00;100820.31;5022451;28;20022;-90
2022/02/22 08:59:11;;;;;;;;;;;7.50;99.90;;;5.80;100.00;100819.13;5023568;28;20024;-92
2022/02/22 09:01:39;;;;;;;;;;;7.50;99.90;;;5.90;100.00;100819.09;5025031;28;20456;-90
2022/02/22 09:04:06;;;;;;;;;;;7.60;99.90;;;5.91;100.00;100817.28;5022938;28;20444;-90
2022/02/22 09:06:33;;;;;;;;;;;7.60;99.90;;;5.89;100.00;100809.31;5028083;28;19932;-90
2022/02/22 09:09:00;;;;;;;;;;;7.70;99.90;;;6.10;100.00;100811.00;5027881;28;19934;-84
2022/02/22 09:11:27;;;;;;;;;;;7.70;99.90;;;6.17;100.00;100804.84;5026183;28;19949;-89
2022/02/22 09:13:54;;;;;;;;;;;7.80;99.90;;;6.21;100.00;100805.41;5020296;28;19939;-89
2022/02/22 09:16:25;;;;;;;;;;;7.80;99.90;;;6.18;100.00;100806.53;5033572;28;19929;-88
2022/02/22 09:18:53;;;;;;;;;;;7.90;99.90;;;6.18;100.00;100793.03;5028369;28;19929;-90
2022/02/22 09:21:20;;;;;;;;;;;7.90;99.90;;;6.17;100.00;100794.03;5027534;28;19925;-89
2022/02/22 09:23:47;;;;;;;;;;;7.90;99.90;;;6.22;100.00;100793.56;5028394;28;19964;-90
2022/02/22 09:26:14;;;;;;;;;;;7.90;99.90;;;6.17;100.00;100787.75;5018275;28;20031;-81
2022/02/22 09:28:45;;;;;;;;;;;7.90;99.90;;;6.15;100.00;100769.00;5013611;28;19956;-90
2022/02/22 09:31:14;;;;;;;;;;;7.90;99.90;;;6.24;100.00;100784.34;5044413;28;19983;-91
2022/02/22 09:33:43;;;;;;;;;;;8.10;99.90;;;6.30;100.00;100772.03;5025412;28;19936;-91
2022/02/22 09:36:10;;;;;;;;;;;8.00;99.90;;;6.33;100.00;100777.16;5017975;28;19933;-91
2022/02/22 09:38:37;;;;;;;;;;;8.00;99.90;;;6.42;100.00;100764.59;5016934;28;19933;-90
2022/02/22 09:41:05;;;;;;;;;;;8.00;99.90;;;6.35;100.00;100768.91;5027473;28;19933;-91
2022/02/22 09:43:34;;;;;;;;;;;8.10;99.90;;;6.42;100.00;100770.00;5000984;28;19930;-90
2022/02/22 09:46:02;;;;;;;;;;;8.10;99.90;;;6.47;100.00;100773.09;5008056;28;19929;-91
2022/02/22 09:48:29;;;;;;;;;;;8.10;99.90;;;6.51;100.00;100766.41;5026890;28;20003;-90
2022/02/22 09:50:58;;;;;;;;;;;8.20;99.90;;;6.61;100.00;100753.66;5006424;28;19929;-91
2022/02/22 09:53:25;;;;;;;;;;;8.20;99.90;;;6.68;100.00;100755.75;5021144;28;20024;-90
2022/02/22 09:55:52;;;;;;;;;;;8.20;99.90;;;6.72;100.00;100744.47;5001258;28;20010;-90
2022/02/22 09:58:19;;;;;;;;;;;8.30;99.90;;;6.82;100.00;100739.84;5028924;28;19975;-91
2022/02/22 10:00:46;;;;;;;;;;;8.30;99.90;;;6.87;100.00;100733.94;5015096;28;20239;-90
2022/02/22 10:03:18;;;;;;;;;;;8.40;99.90;;;6.95;100.00;100716.94;5024535;28;20035;-89
2022/02/22 10:05:56;;;;;;;;;;;8.40;99.90;;;7.02;100.00;100718.00;5033236;28;20301;-91
2022/02/22 10:08:29;;;;;;;;;;;8.40;99.90;;;6.93;100.00;100714.41;5030097;28;19975;-90
2022/02/22 10:11:00;;;;;;;;;;;8.40;99.90;;;6.94;100.00;100715.25;5021198;28;19929;-89
2022/02/22 10:13:27;;;;;;;;;;;8.40;99.90;;;6.95;100.00;100717.81;5039987;28;20518;-86
2022/02/22 10:15:54;;;;;;;;;;;8.50;99.90;;;6.97;100.00;100717.66;5029949;28;20459;-85
2022/02/22 10:18:22;;;;;;;;;;;8.60;99.90;;;7.03;100.00;100715.16;5029789;28;20385;-84
2022/02/22 10:20:49;;;;;;;;;;;8.60;99.90;;;7.07;100.00;100715.69;5020695;28;19929;-85
2022/02/22 10:23:28;;;;;;;;;;;8.70;99.90;;;7.15;100.00;100717.63;5027350;28;19929;-85
2022/02/22 10:25:57;;;;;;;;;;;8.70;99.90;;;7.23;100.00;100709.53;5027035;28;19925;-86
2022/02/22 10:28:25;;;;;;;;;;;8.80;99.90;;;7.26;100.00;100708.41;5018257;28;20361;-83
2022/02/22 10:30:53;;;;;;;;;;;8.80;99.90;;;7.21;100.00;100717.81;5023028;28;20765;-83
2022/02/22 10:33:22;;;;;;;;;;;8.90;99.90;;;7.23;100.00;100723.09;5021850;28;19928;-83
2022/02/22 10:35:51;;;;;;;;;;;8.80;99.90;;;7.22;100.00;100724.09;5019351;28;19935;-83
2022/02/22 10:38:21;;;;;;;;;;;8.80;99.90;;;7.26;100.00;100720.06;5025150;28;19940;-83
2022/02/22 10:40:55;;;;;;;;;;;8.80;99.90;;;7.31;100.00;100734.00;5021124;28;20290;-82
2022/02/22 10:43:24;;;;;;;;;;;8.90;99.90;;;7.35;100.00;100735.38;5029277;28;20458;-83
2022/02/22 10:45:54;;;;;;;;;;;8.90;99.90;;;7.34;100.00;100744.50;5017703;28;19929;-83
2022/02/22 10:48:28;;;;;;;;;;;8.90;99.90;;;7.37;100.00;100738.75;5027847;28;19929;-83
2022/02/22 10:50:57;;;;;;;;;;;8.90;99.90;;;7.40;100.00;100743.84;5023616;28;19980;-83
2022/02/22 10:53:32;;;;;;;;;;;8.90;99.90;;;7.40;100.00;100746.56;5026066;28;20032;-85
2022/02/22 10:56:03;;;;;;;;;;;8.90;99.90;;;7.42;100.00;100741.84;5022011;28;20028;-83
2022/02/22 10:58:31;;;;;;;;;;;9.00;99.90;;;7.49;100.00;100741.22;5023870;28;20443;-83
2022/02/22 11:00:58;;;;;;;;;;;9.00;99.90;;;7.50;100.00;100742.91;5024769;28;19943;-83
2022/02/22 11:03:25;;;;;;;;;;;9.00;99.90;;;7.48;100.00;100726.81;5025535;28;19925;-83
2022/02/22 11:05:52;;;;;;;;;;;9.00;99.90;;;7.49;100.00;100724.97;5030772;28;20366;-83
2022/02/22 11:08:27;;;;;;;;;;;9.00;99.90;;;7.48;100.00;100713.25;5023881;28;20023;-83
2022/02/22 11:10:59;;;;;;;;;;;9.00;99.90;;;7.55;100.00;100721.63;5029135;28;20026;-83
2022/02/22 11:13:29;;;;;;;;;;;9.10;99.90;;;7.59;100.00;100695.91;5030755;28;19975;-83
2022/02/22 11:16:07;;;;;;;;;;;9.10;99.90;;;7.59;100.00;100685.91;5031070;28;20015;-83
2022/02/22 11:18:46;;;;;;;;;;;9.10;99.90;;;7.63;100.00;100678.31;5016926;28;20377;-83